sensor_id;sensor_type;location;lat;lon;timestamp;pressure;altitude;pressure_sealevel;temperature
67509;BMP280;54354;44.724;11.284;2022-08-07T00:00:41;101557.47;;;32.12
67509;BMP280;54354;44.724;11.284;2022-08-07T00:03:07;101567.53;;;32.10
67509;BMP280;54354;44.724;11.284;2022-08-07T00:05:33;101559.84;;;32.08
67509;BMP280;54354;44.724;11.284;2022-08-07T00:07:59;101563.50;;;32.11
67509;BMP280;54354;44.724;11.284;2022-08-07T00:10:24;101562.41;;;32.14
67509;BMP280;54354;44.724;11.284;2022-08-07T00:12:50;101562.78;;;32.18
67509;BMP280;54354;44.724;11.284;2022-08-07T00:15:15;101562.25;;;32.19
67509;BMP280;54354;44.724;11.284;2022-08-07T00:17:41;101567.88;;;32.21
67509;BMP280;54354;44.724;11.284;2022-08-07T00:20:07;101570.84;;;32.31
67509;BMP280;54354;44.724;11.284;2022-08-07T00:22:32;101569.53;;;32.32
67509;BMP280;54354;44.724;11.284;2022-08-07T00:24:58;101571.19;;;32.35
67509;BMP280;54354;44.724;11.284;2022-08-07T00:27:23;101568.28;;;32.41
67509;BMP280;54354;44.724;11.284;2022-08-07T00:29:49;101574.31;;;32.47
67509;BMP280;54354;44.724;11.284;2022-08-07T00:32:15;101568.66;;;32.45
67509;BMP280;54354;44.724;11.284;2022-08-07T00:34:41;101573.03;;;32.48
67509;BMP280;54354;44.724;11.284;2022-08-07T00:37:07;101572.69;;;32.51
67509;BMP280;54354;44.724;11.284;2022-08-07T00:39:35;101566.09;;;32.47
67509;BMP280;54354;44.724;11.284;2022-08-07T00:42:01;101570.13;;;32.46
67509;BMP280;54354;44.724;11.284;2022-08-07T00:44:28;101563.34;;;32.47
67509;BMP280;54354;44.724;11.284;2022-08-07T00:46:53;101555.31;;;32.49
67509;BMP280;54354;44.724;11.284;2022-08-07T00:49:19;101550.56;;;32.49
67509;BMP280;54354;44.724;11.284;2022-08-07T00:51:45;101556.78;;;32.50
67509;BMP280;54354;44.724;11.284;2022-08-07T00:54:11;101551.47;;;32.52
67509;BMP280;54354;44.724;11.284;2022-08-07T00:56:39;101554.56;;;32.48
67509;BMP280;54354;44.724;11.284;2022-08-07T00:59:05;101554.22;;;32.44
67509;BMP280;54354;44.724;11.284;2022-08-07T01:01:32;101556.94;;;32.44
67509;BMP280;54354;44.724;11.284;2022-08-07T01:03:58;101554.56;;;32.41
67509;BMP280;54354;44.724;11.284;2022-08-07T01:06:24;101553.81;;;32.33
67509;BMP280;54354;44.724;11.284;2022-08-07T01:08:50;101558.97;;;32.28
67509;BMP280;54354;44.724;11.284;2022-08-07T01:11:16;101559.31;;;32.25
67509;BMP280;54354;44.724;11.284;2022-08-07T01:13:42;101550.34;;;32.24
67509;BMP280;54354;44.724;11.284;2022-08-07T01:16:07;101554.56;;;32.25
67509;BMP280;54354;44.724;11.284;2022-08-07T01:18:34;101557.84;;;32.24
67509;BMP280;54354;44.724;11.284;2022-08-07T01:21:15;101565.88;;;32.29
67509;BMP280;54354;44.724;11.284;2022-08-07T01:23:44;101563.53;;;32.26
67509;BMP280;54354;44.724;11.284;2022-08-07T01:26:13;101564.25;;;32.26
67509;BMP280;54354;44.724;11.284;2022-08-07T01:28:50;101568.63;;;32.22
67509;BMP280;54354;44.724;11.284;2022-08-07T01:31:25;101576.31;;;32.23
67509;BMP280;54354;44.724;11.284;2022-08-07T01:33:58;101575.94;;;32.19
67509;BMP280;54354;44.724;11.284;2022-08-07T01:36:28;101581.97;;;32.18
67509;BMP280;54354;44.724;11.284;2022-08-07T01:38:57;101579.59;;;32.14
67509;BMP280;54354;44.724;11.284;2022-08-07T01:41:23;101577.19;;;32.11
67509;BMP280;54354;44.724;11.284;2022-08-07T01:43:50;101573.19;;;32.12
67509;BMP280;54354;44.724;11.284;2022-08-07T01:46:18;101577.41;;;32.13
67509;BMP280;54354;44.724;11.284;2022-08-07T01:48:45;101578.84;;;32.14
67509;BMP280;54354;44.724;11.284;2022-08-07T01:51:17;101573.56;;;32.16
67509;BMP280;54354;44.724;11.284;2022-08-07T01:53:56;101577.41;;;32.13
67509;BMP280;54354;44.724;11.284;2022-08-07T01:56:28;101576.84;;;32.14
67509;BMP280;54354;44.724;11.284;2022-08-07T01:59:04;101568.06;;;32.08
67509;BMP280;54354;44.724;11.284;2022-08-07T02:01:34;101570.25;;;32.02
67509;BMP280;54354;44.724;11.284;2022-08-07T02:04:08;101560.38;;;31.99
67509;BMP280;54354;44.724;11.284;2022-08-07T02:06:37;101562.03;;;32.02
67509;BMP280;54354;44.724;11.284;2022-08-07T02:09:07;101558.91;;;31.98
67509;BMP280;54354;44.724;11.284;2022-08-07T02:11:37;101565.88;;;31.99
67509;BMP280;54354;44.724;11.284;2022-08-07T02:14:04;101560.72;;;32.03
67509;BMP280;54354;44.724;11.284;2022-08-07T02:16:35;101556.19;;;31.98
67509;BMP280;54354;44.724;11.284;2022-08-07T02:19:03;101557.44;;;31.97
67509;BMP280;54354;44.724;11.284;2022-08-07T02:21:31;101555.81;;;32.02
67509;BMP280;54354;44.724;11.284;2022-08-07T02:23:59;101558.34;;;32.00
67509;BMP280;54354;44.724;11.284;2022-08-07T02:26:26;101560.16;;;31.97
67509;BMP280;54354;44.724;11.284;2022-08-07T02:28:52;101565.66;;;31.97
67509;BMP280;54354;44.724;11.284;2022-08-07T02:31:21;101555.06;;;31.93
67509;BMP280;54354;44.724;11.284;2022-08-07T02:33:48;101556.00;;;31.96
67509;BMP280;54354;44.724;11.284;2022-08-07T02:36:16;101557.28;;;31.95
67509;BMP280;54354;44.724;11.284;2022-08-07T02:38:43;101556.19;;;31.98
67509;BMP280;54354;44.724;11.284;2022-08-07T02:41:11;101555.41;;;31.98
67509;BMP280;54354;44.724;11.284;2022-08-07T02:43:38;101548.69;;;31.99
67509;BMP280;54354;44.724;11.284;2022-08-07T02:46:06;101541.41;;;32.01
67509;BMP280;54354;44.724;11.284;2022-08-07T02:48:34;101555.28;;;32.11
67509;BMP280;54354;44.724;11.284;2022-08-07T02:51:09;101547.44;;;32.07
67509;BMP280;54354;44.724;11.284;2022-08-07T02:53:38;101550.19;;;32.07
67509;BMP280;54354;44.724;11.284;2022-08-07T02:56:11;101541.03;;;32.05
67509;BMP280;54354;44.724;11.284;2022-08-07T02:58:38;101543.59;;;32.10
67509;BMP280;54354;44.724;11.284;2022-08-07T03:01:04;101540.47;;;32.14
67509;BMP280;54354;44.724;11.284;2022-08-07T03:03:34;101547.63;;;32.17
67509;BMP280;54354;44.724;11.284;2022-08-07T03:06:01;101543.59;;;32.10
67509;BMP280;54354;44.724;11.284;2022-08-07T03:08:26;101536.06;;;32.03
67509;BMP280;54354;44.724;11.284;2022-08-07T03:10:54;101530.06;;;32.05
67509;BMP280;54354;44.724;11.284;2022-08-07T03:13:25;101535.53;;;32.12
67509;BMP280;54354;44.724;11.284;2022-08-07T03:15:52;101535.72;;;32.07
67509;BMP280;54354;44.724;11.284;2022-08-07T03:18:19;101541.72;;;31.98
67509;BMP280;54354;44.724;11.284;2022-08-07T03:20:47;101537.16;;;31.92
67509;BMP280;54354;44.724;11.284;2022-08-07T03:23:14;101539.34;;;31.86
67509;BMP280;54354;44.724;11.284;2022-08-07T03:25:40;101528.38;;;31.86
67509;BMP280;54354;44.724;11.284;2022-08-07T03:28:09;101530.75;;;31.82
67509;BMP280;54354;44.724;11.284;2022-08-07T03:30:36;101539.69;;;31.83
67509;BMP280;54354;44.724;11.284;2022-08-07T03:33:03;101542.97;;;31.81
67509;BMP280;54354;44.724;11.284;2022-08-07T03:35:32;101526.88;;;31.78
67509;BMP280;54354;44.724;11.284;2022-08-07T03:38:01;101528.50;;;31.73
67509;BMP280;54354;44.724;11.284;2022-08-07T03:40:30;101530.38;;;31.78
67509;BMP280;54354;44.724;11.284;2022-08-07T03:42:57;101522.69;;;31.77
67509;BMP280;54354;44.724;11.284;2022-08-07T03:45:26;101524.50;;;31.67
67509;BMP280;54354;44.724;11.284;2022-08-07T03:47:53;101529.22;;;31.58
67509;BMP280;54354;44.724;11.284;2022-08-07T03:50:21;101527.91;;;31.52
67509;BMP280;54354;44.724;11.284;2022-08-07T03:52:51;101534.09;;;31.45
67509;BMP280;54354;44.724;11.284;2022-08-07T03:55:19;101537.16;;;31.41
67509;BMP280;54354;44.724;11.284;2022-08-07T03:57:45;101541.47;;;31.29
67509;BMP280;54354;44.724;11.284;2022-08-07T04:00:12;101542.34;;;31.16
67509;BMP280;54354;44.724;11.284;2022-08-07T04:02:41;101551.28;;;31.17
67509;BMP280;54354;44.724;11.284;2022-08-07T04:05:20;101554.91;;;31.12
67509;BMP280;54354;44.724;11.284;2022-08-07T04:07:49;101548.00;;;31.18
67509;BMP280;54354;44.724;11.284;2022-08-07T04:10:19;101565.00;;;31.24
67509;BMP280;54354;44.724;11.284;2022-08-07T04:12:47;101561.84;;;31.20
67509;BMP280;54354;44.724;11.284;2022-08-07T04:15:15;101566.03;;;31.14
67509;BMP280;54354;44.724;11.284;2022-08-07T04:17:43;101556.50;;;31.07
67509;BMP280;54354;44.724;11.284;2022-08-07T04:20:12;101569.81;;;31.03
67509;BMP280;54354;44.724;11.284;2022-08-07T04:22:39;101571.66;;;31.08
67509;BMP280;54354;44.724;11.284;2022-08-07T04:25:07;101584.94;;;31.04
67509;BMP280;54354;44.724;11.284;2022-08-07T04:27:33;101579.31;;;31.10
67509;BMP280;54354;44.724;11.284;2022-08-07T04:29:59;101598.34;;;31.15
67509;BMP280;54354;44.724;11.284;2022-08-07T04:32:32;101590.47;;;31.12
67509;BMP280;54354;44.724;11.284;2022-08-07T04:34:57;101590.41;;;31.04
67509;BMP280;54354;44.724;11.284;2022-08-07T04:37:23;101597.69;;;31.02
67509;BMP280;54354;44.724;11.284;2022-08-07T04:39:51;101604.44;;;31.01
67509;BMP280;54354;44.724;11.284;2022-08-07T04:42:17;101608.97;;;30.98
67509;BMP280;54354;44.724;11.284;2022-08-07T04:44:43;101600.38;;;30.94
67509;BMP280;54354;44.724;11.284;2022-08-07T04:47:15;101606.03;;;30.96
67509;BMP280;54354;44.724;11.284;2022-08-07T04:50:02;101603.63;;;30.92
67509;BMP280;54354;44.724;11.284;2022-08-07T04:52:52;101589.63;;;30.96
67509;BMP280;54354;44.724;11.284;2022-08-07T04:55:30;101593.69;;;31.03
67509;BMP280;54354;44.724;11.284;2022-08-07T04:58:10;101595.34;;;31.06
67509;BMP280;54354;44.724;11.284;2022-08-07T05:04:14;101604.19;;;31.19
67509;BMP280;54354;44.724;11.284;2022-08-07T05:09:28;101615.34;;;31.21
67509;BMP280;54354;44.724;11.284;2022-08-07T05:11:59;101616.44;;;31.26
67509;BMP280;54354;44.724;11.284;2022-08-07T05:14:37;101615.38;;;31.29
67509;BMP280;54354;44.724;11.284;2022-08-07T05:17:07;101610.84;;;31.32
67509;BMP280;54354;44.724;11.284;2022-08-07T05:19:37;101612.47;;;31.27
67509;BMP280;54354;44.724;11.284;2022-08-07T05:22:07;101611.19;;;31.28
67509;BMP280;54354;44.724;11.284;2022-08-07T05:24:36;101619.59;;;31.30
67509;BMP280;54354;44.724;11.284;2022-08-07T05:27:04;101621.63;;;31.30
67509;BMP280;54354;44.724;11.284;2022-08-07T05:29:31;101620.19;;;31.36
67509;BMP280;54354;44.724;11.284;2022-08-07T05:31:59;101624.22;;;31.43
67509;BMP280;54354;44.724;11.284;2022-08-07T05:34:29;101620.06;;;31.49
67509;BMP280;54354;44.724;11.284;2022-08-07T05:36:55;101629.75;;;31.50
67509;BMP280;54354;44.724;11.284;2022-08-07T05:39:27;101639.81;;;31.55
67509;BMP280;54354;44.724;11.284;2022-08-07T05:41:57;101636.34;;;31.55
67509;BMP280;54354;44.724;11.284;2022-08-07T05:44:23;101643.84;;;31.62
67509;BMP280;54354;44.724;11.284;2022-08-07T05:46:49;101644.84;;;31.72
67509;BMP280;54354;44.724;11.284;2022-08-07T05:49:20;101644.28;;;31.74
67509;BMP280;54354;44.724;11.284;2022-08-07T05:51:48;101643.56;;;31.73
67509;BMP280;54354;44.724;11.284;2022-08-07T05:54:18;101649.22;;;31.75
67509;BMP280;54354;44.724;11.284;2022-08-07T05:56:45;101643.38;;;31.71
67509;BMP280;54354;44.724;11.284;2022-08-07T05:59:17;101641.53;;;31.66
67509;BMP280;54354;44.724;11.284;2022-08-07T06:01:48;101637.72;;;31.69
67509;BMP280;54354;44.724;11.284;2022-08-07T06:04:18;101626.53;;;31.67
67509;BMP280;54354;44.724;11.284;2022-08-07T06:06:44;101643.97;;;31.77
67509;BMP280;54354;44.724;11.284;2022-08-07T06:09:11;101646.88;;;31.79
67509;BMP280;54354;44.724;11.284;2022-08-07T06:11:43;101647.25;;;31.83
67509;BMP280;54354;44.724;11.284;2022-08-07T06:14:10;101653.28;;;31.82
67509;BMP280;54354;44.724;11.284;2022-08-07T06:16:37;101654.34;;;31.79
67509;BMP280;54354;44.724;11.284;2022-08-07T06:19:04;101672.66;;;31.84
67509;BMP280;54354;44.724;11.284;2022-08-07T06:21:32;101683.25;;;31.87
67509;BMP280;54354;44.724;11.284;2022-08-07T06:23:57;101703.38;;;31.90
67509;BMP280;54354;44.724;11.284;2022-08-07T06:26:24;101704.09;;;31.90
67509;BMP280;54354;44.724;11.284;2022-08-07T06:28:52;101711.38;;;31.88
67509;BMP280;54354;44.724;11.284;2022-08-07T06:31:18;101720.00;;;31.92
67509;BMP280;54354;44.724;11.284;2022-08-07T06:33:45;101718.31;;;31.89
67509;BMP280;54354;44.724;11.284;2022-08-07T06:36:11;101733.09;;;31.86
67509;BMP280;54354;44.724;11.284;2022-08-07T06:38:42;101720.50;;;31.83
67509;BMP280;54354;44.724;11.284;2022-08-07T06:41:11;101713.53;;;31.74
67509;BMP280;54354;44.724;11.284;2022-08-07T06:43:43;101726.28;;;31.72
67509;BMP280;54354;44.724;11.284;2022-08-07T06:46:13;101721.13;;;31.68
67509;BMP280;54354;44.724;11.284;2022-08-07T06:48:40;101729.34;;;31.68
67509;BMP280;54354;44.724;11.284;2022-08-07T06:51:08;101723.88;;;31.68
67509;BMP280;54354;44.724;11.284;2022-08-07T06:53:38;101726.22;;;31.64
67509;BMP280;54354;44.724;11.284;2022-08-07T06:56:06;101718.94;;;31.67
67509;BMP280;54354;44.724;11.284;2022-08-07T06:58:35;101715.66;;;31.68
67509;BMP280;54354;44.724;11.284;2022-08-07T07:01:08;101708.69;;;31.67
67509;BMP280;54354;44.724;11.284;2022-08-07T07:03:37;101700.28;;;31.65
67509;BMP280;54354;44.724;11.284;2022-08-07T07:06:04;101710.78;;;31.74
67509;BMP280;54354;44.724;11.284;2022-08-07T07:08:32;101713.88;;;31.78
67509;BMP280;54354;44.724;11.284;2022-08-07T07:10:58;101718.09;;;31.79
67509;BMP280;54354;44.724;11.284;2022-08-07T07:13:30;101709.34;;;31.81
67509;BMP280;54354;44.724;11.284;2022-08-07T07:16:00;101709.19;;;31.86
67509;BMP280;54354;44.724;11.284;2022-08-07T07:18:28;101702.13;;;31.99
67509;BMP280;54354;44.724;11.284;2022-08-07T07:21:05;101693.34;;;32.00
67509;BMP280;54354;44.724;11.284;2022-08-07T07:23:32;101698.56;;;32.19
67509;BMP280;54354;44.724;11.284;2022-08-07T07:26:01;101692.00;;;32.29
67509;BMP280;54354;44.724;11.284;2022-08-07T07:28:41;101712.88;;;32.40
67509;BMP280;54354;44.724;11.284;2022-08-07T07:31:20;101719.28;;;32.43
67509;BMP280;54354;44.724;11.284;2022-08-07T07:33:51;101719.66;;;32.47
67509;BMP280;54354;44.724;11.284;2022-08-07T07:36:19;101712.19;;;32.55
67509;BMP280;54354;44.724;11.284;2022-08-07T07:38:45;101705.97;;;32.70
67509;BMP280;54354;44.724;11.284;2022-08-07T07:41:11;101720.81;;;32.89
67509;BMP280;54354;44.724;11.284;2022-08-07T07:43:40;101717.50;;;32.98
67509;BMP280;54354;44.724;11.284;2022-08-07T07:46:07;101720.47;;;33.08
67509;BMP280;54354;44.724;11.284;2022-08-07T07:48:35;101716.41;;;33.09
67509;BMP280;54354;44.724;11.284;2022-08-07T07:51:02;101720.47;;;33.08
67509;BMP280;54354;44.724;11.284;2022-08-07T07:53:29;101710.59;;;33.05
67509;BMP280;54354;44.724;11.284;2022-08-07T07:55:57;101714.81;;;33.06
67509;BMP280;54354;44.724;11.284;2022-08-07T07:58:33;101712.59;;;33.12
67509;BMP280;54354;44.724;11.284;2022-08-07T08:01:00;101680.91;;;33.19
67509;BMP280;54354;44.724;11.284;2022-08-07T08:03:29;101668.28;;;33.23
67509;BMP280;54354;44.724;11.284;2022-08-07T08:05:55;101660.38;;;33.27
67509;BMP280;54354;44.724;11.284;2022-08-07T08:08:27;101622.88;;;33.22
67509;BMP280;54354;44.724;11.284;2022-08-07T08:10:53;101598.16;;;33.22
67509;BMP280;54354;44.724;11.284;2022-08-07T08:13:22;101577.88;;;33.18
67509;BMP280;54354;44.724;11.284;2022-08-07T08:15:49;101543.84;;;33.21
67509;BMP280;54354;44.724;11.284;2022-08-07T08:18:15;101527.38;;;33.13
67509;BMP280;54354;44.724;11.284;2022-08-07T08:20:42;101512.22;;;33.05
67509;BMP280;54354;44.724;11.284;2022-08-07T08:23:09;101508.59;;;32.94
67509;BMP280;54354;44.724;11.284;2022-08-07T08:25:58;101512.66;;;32.86
67509;BMP280;54354;44.724;11.284;2022-08-07T08:28:53;101523.66;;;32.78
67509;BMP280;54354;44.724;11.284;2022-08-07T08:31:28;101539.78;;;32.67
67509;BMP280;54354;44.724;11.284;2022-08-07T08:33:56;101541.75;;;32.51
67509;BMP280;54354;44.724;11.284;2022-08-07T08:36:25;101558.41;;;32.38
67509;BMP280;54354;44.724;11.284;2022-08-07T08:38:53;101574.31;;;32.32
67509;BMP280;54354;44.724;11.284;2022-08-07T08:41:26;101592.75;;;32.16
67509;BMP280;54354;44.724;11.284;2022-08-07T08:44:32;101596.03;;;32.14
67509;BMP280;54354;44.724;11.284;2022-08-07T08:47:06;101607.47;;;31.98
67509;BMP280;54354;44.724;11.284;2022-08-07T08:49:51;101617.50;;;31.87
67509;BMP280;54354;44.724;11.284;2022-08-07T08:52:27;101623.13;;;31.74
67509;BMP280;54354;44.724;11.284;2022-08-07T08:54:58;101613.91;;;31.56
67509;BMP280;54354;44.724;11.284;2022-08-07T08:57:40;101628.81;;;31.48
67509;BMP280;54354;44.724;11.284;2022-08-07T09:00:10;101639.56;;;31.46
67509;BMP280;54354;44.724;11.284;2022-08-07T09:03:01;101640.91;;;31.52
67509;BMP280;54354;44.724;11.284;2022-08-07T09:05:50;101644.22;;;31.58
67509;BMP280;54354;44.724;11.284;2022-08-07T09:11:59;101658.25;;;31.55
67509;BMP280;54354;44.724;11.284;2022-08-07T09:14:36;101656.72;;;31.39
67509;BMP280;54354;44.724;11.284;2022-08-07T09:17:10;101653.97;;;31.39
67509;BMP280;54354;44.724;11.284;2022-08-07T09:19:51;101661.28;;;31.44
67509;BMP280;54354;44.724;11.284;2022-08-07T09:25:23;101662.44;;;31.56
67509;BMP280;54354;44.724;11.284;2022-08-07T09:28:05;101671.22;;;31.54
67509;BMP280;54354;44.724;11.284;2022-08-07T09:36:11;101673.63;;;31.58
67509;BMP280;54354;44.724;11.284;2022-08-07T09:39:26;101671.81;;;31.68
67509;BMP280;54354;44.724;11.284;2022-08-07T09:41:37;101662.44;;;31.84
67509;BMP280;54354;44.724;11.284;2022-08-07T09:47:50;101665.81;;;32.13
67509;BMP280;54354;44.724;11.284;2022-08-07T09:53:08;101668.22;;;32.17
67509;BMP280;54354;44.724;11.284;2022-08-07T09:55:57;101667.28;;;32.14
67509;BMP280;54354;44.724;11.284;2022-08-07T10:09:34;101661.50;;;31.82
67509;BMP280;54354;44.724;11.284;2022-08-07T10:17:38;101654.34;;;31.79
67509;BMP280;54354;44.724;11.284;2022-08-07T10:20:24;101652.50;;;31.74
67509;BMP280;54354;44.724;11.284;2022-08-07T10:26:21;101650.09;;;31.63
67509;BMP280;54354;44.724;11.284;2022-08-07T10:37:58;101655.97;;;31.67
67509;BMP280;54354;44.724;11.284;2022-08-07T10:40:36;101653.00;;;31.65
67509;BMP280;54354;44.724;11.284;2022-08-07T10:43:19;101645.19;;;31.69
67509;BMP280;54354;44.724;11.284;2022-08-07T10:45:51;101647.78;;;31.74
67509;BMP280;54354;44.724;11.284;2022-08-07T10:48:29;101645.78;;;31.75
67509;BMP280;54354;44.724;11.284;2022-08-07T10:51:04;101643.59;;;31.81
67509;BMP280;54354;44.724;11.284;2022-08-07T10:56:31;101639.28;;;31.93
67509;BMP280;54354;44.724;11.284;2022-08-07T11:01:51;101632.13;;;31.90
67509;BMP280;54354;44.724;11.284;2022-08-07T11:07:00;101629.34;;;31.82
67509;BMP280;54354;44.724;11.284;2022-08-07T11:09:30;101629.19;;;31.80
67509;BMP280;54354;44.724;11.284;2022-08-07T11:12:09;101631.72;;;31.78
67509;BMP280;54354;44.724;11.284;2022-08-07T11:14:42;101625.34;;;31.83
67509;BMP280;54354;44.724;11.284;2022-08-07T11:17:45;101635.06;;;32.00
67509;BMP280;54354;44.724;11.284;2022-08-07T11:23:13;101626.66;;;31.90
67509;BMP280;54354;44.724;11.284;2022-08-07T11:26:09;101621.56;;;31.94
67509;BMP280;54354;44.724;11.284;2022-08-07T11:28:48;101626.84;;;31.92
67509;BMP280;54354;44.724;11.284;2022-08-07T11:31:26;101627.03;;;31.94
67509;BMP280;54354;44.724;11.284;2022-08-07T11:34:11;101626.91;;;32.07
67509;BMP280;54354;44.724;11.284;2022-08-07T11:36:54;101632.22;;;32.20
67509;BMP280;54354;44.724;11.284;2022-08-07T11:57:09;101571.19;;;32.05
67509;BMP280;54354;44.724;11.284;2022-08-07T12:00:02;101565.28;;;31.93
67509;BMP280;54354;44.724;11.284;2022-08-07T12:08:42;101568.84;;;31.65
67509;BMP280;54354;44.724;11.284;2022-08-07T12:11:22;101552.75;;;31.61
67509;BMP280;54354;44.724;11.284;2022-08-07T12:14:02;101548.38;;;31.58
67509;BMP280;54354;44.724;11.284;2022-08-07T12:16:41;101546.34;;;31.59
67509;BMP280;54354;44.724;11.284;2022-08-07T12:19:50;101582.53;;;31.65
67509;BMP280;54354;44.724;11.284;2022-08-07T12:22:11;101574.31;;;31.65
67509;BMP280;54354;44.724;11.284;2022-08-07T12:24:47;101558.59;;;31.58
67509;BMP280;54354;44.724;11.284;2022-08-07T12:27:38;101550.00;;;31.54
67509;BMP280;54354;44.724;11.284;2022-08-07T12:30:06;101542.19;;;31.58
67509;BMP280;54354;44.724;11.284;2022-08-07T12:32:41;101538.72;;;31.65
67509;BMP280;54354;44.724;11.284;2022-08-07T12:35:11;101532.16;;;31.60
67509;BMP280;54354;44.724;11.284;2022-08-07T12:37:40;101533.06;;;31.63
67509;BMP280;54354;44.724;11.284;2022-08-07T12:40:07;101534.50;;;31.64
67509;BMP280;54354;44.724;11.284;2022-08-07T12:42:33;101524.28;;;31.65
67509;BMP280;54354;44.724;11.284;2022-08-07T12:45:04;101523.03;;;31.66
67509;BMP280;54354;44.724;11.284;2022-08-07T12:47:54;101523.44;;;31.77
67509;BMP280;54354;44.724;11.284;2022-08-07T12:52:58;101507.19;;;31.87
67509;BMP280;54354;44.724;11.284;2022-08-07T12:55:35;101506.09;;;31.98
67509;BMP280;54354;44.724;11.284;2022-08-07T12:58:01;101513.63;;;32.05
67509;BMP280;54354;44.724;11.284;2022-08-07T13:00:53;101498.63;;;32.13
67509;BMP280;54354;44.724;11.284;2022-08-07T13:06:53;101493.53;;;32.25
67509;BMP280;54354;44.724;11.284;2022-08-07T13:12:27;101482.03;;;32.34
67509;BMP280;54354;44.724;11.284;2022-08-07T13:17:45;101470.69;;;32.38
67509;BMP280;54354;44.724;11.284;2022-08-07T13:20:29;101467.19;;;32.45
67509;BMP280;54354;44.724;11.284;2022-08-07T13:23:06;101468.28;;;32.49
67509;BMP280;54354;44.724;11.284;2022-08-07T13:25:41;101469.94;;;32.52
67509;BMP280;54354;44.724;11.284;2022-08-07T13:28:28;101470.66;;;32.60
67509;BMP280;54354;44.724;11.284;2022-08-07T13:31:04;101478.88;;;32.60
67509;BMP280;54354;44.724;11.284;2022-08-07T13:37:03;101484.16;;;32.66
67509;BMP280;54354;44.724;11.284;2022-08-07T13:39:34;101488.91;;;32.66
67509;BMP280;54354;44.724;11.284;2022-08-07T13:42:00;101495.50;;;32.70
67509;BMP280;54354;44.724;11.284;2022-08-07T13:44:31;101494.41;;;32.66
67509;BMP280;54354;44.724;11.284;2022-08-07T13:46:59;101490.38;;;32.74
67509;BMP280;54354;44.724;11.284;2022-08-07T13:49:27;101468.97;;;32.73
67509;BMP280;54354;44.724;11.284;2022-08-07T13:51:56;101469.53;;;32.79
67509;BMP280;54354;44.724;11.284;2022-08-07T13:54:29;101459.47;;;33.21
67509;BMP280;54354;44.724;11.284;2022-08-07T13:56:56;101456.28;;;33.00
67509;BMP280;54354;44.724;11.284;2022-08-07T13:59:26;101448.06;;;32.92
67509;BMP280;54354;44.724;11.284;2022-08-07T14:02:20;101457.19;;;32.95
67509;BMP280;54354;44.724;11.284;2022-08-07T14:07:14;101463.63;;;32.90
67509;BMP280;54354;44.724;11.284;2022-08-07T14:09:41;101456.50;;;32.87
67509;BMP280;54354;44.724;11.284;2022-08-07T14:12:19;101455.75;;;32.86
67509;BMP280;54354;44.724;11.284;2022-08-07T14:14:51;101462.16;;;32.89
67509;BMP280;54354;44.724;11.284;2022-08-07T14:17:21;101465.47;;;32.87
67509;BMP280;54354;44.724;11.284;2022-08-07T14:20:08;101463.97;;;32.94
67509;BMP280;54354;44.724;11.284;2022-08-07T14:22:37;101457.19;;;32.95
67509;BMP280;54354;44.724;11.284;2022-08-07T14:25:14;101442.94;;;32.96
67509;BMP280;54354;44.724;11.284;2022-08-07T14:27:44;101445.50;;;32.94
67509;BMP280;54354;44.724;11.284;2022-08-07T14:30:10;101435.97;;;33.36
67509;BMP280;54354;44.724;11.284;2022-08-07T14:32:53;101432.28;;;33.08
67509;BMP280;54354;44.724;11.284;2022-08-07T14:35:30;101434.63;;;33.04
67509;BMP280;54354;44.724;11.284;2022-08-07T14:37:57;101435.03;;;33.01
67509;BMP280;54354;44.724;11.284;2022-08-07T14:40:25;101431.41;;;32.98
67509;BMP280;54354;44.724;11.284;2022-08-07T14:42:55;101431.75;;;33.02
67509;BMP280;54354;44.724;11.284;2022-08-07T14:45:22;101421.63;;;33.45
67509;BMP280;54354;44.724;11.284;2022-08-07T14:47:50;101428.56;;;33.13
67509;BMP280;54354;44.724;11.284;2022-08-07T14:50:17;101419.88;;;33.00
67509;BMP280;54354;44.724;11.284;2022-08-07T14:52:45;101416.59;;;32.93
67509;BMP280;54354;44.724;11.284;2022-08-07T14:55:13;101414.78;;;32.88
67509;BMP280;54354;44.724;11.284;2022-08-07T14:57:40;101418.25;;;32.89
67509;BMP280;54354;44.724;11.284;2022-08-07T15:00:07;101419.53;;;32.88
67509;BMP280;54354;44.724;11.284;2022-08-07T15:02:34;101417.00;;;32.90
67509;BMP280;54354;44.724;11.284;2022-08-07T15:05:03;101409.66;;;32.92
67509;BMP280;54354;44.724;11.284;2022-08-07T15:07:30;101406.53;;;32.96
67509;BMP280;54354;44.724;11.284;2022-08-07T15:09:56;101412.19;;;32.98
67509;BMP280;54354;44.724;11.284;2022-08-07T15:12:31;101396.69;;;32.93
67509;BMP280;54354;44.724;11.284;2022-08-07T15:15:09;101393.53;;;32.96
67509;BMP280;54354;44.724;11.284;2022-08-07T15:17:39;101392.97;;;32.98
67509;BMP280;54354;44.724;11.284;2022-08-07T15:20:08;101393.69;;;32.98
67509;BMP280;54354;44.724;11.284;2022-08-07T15:22:47;101384.19;;;33.00
67509;BMP280;54354;44.724;11.284;2022-08-07T15:25:19;101383.28;;;32.97
67509;BMP280;54354;44.724;11.284;2022-08-07T15:27:51;101370.47;;;33.00
67509;BMP280;54354;44.724;11.284;2022-08-07T15:30:18;101377.00;;;33.04
67509;BMP280;54354;44.724;11.284;2022-08-07T15:32:46;101376.63;;;33.08
67509;BMP280;54354;44.724;11.284;2022-08-07T15:35:17;101386.34;;;33.09
67509;BMP280;54354;44.724;11.284;2022-08-07T15:37:48;101381.19;;;33.13
67509;BMP280;54354;44.724;11.284;2022-08-07T15:40:16;101392.28;;;33.22
67509;BMP280;54354;44.724;11.284;2022-08-07T15:45:15;101405.25;;;33.29
67509;BMP280;54354;44.724;11.284;2022-08-07T15:47:54;101414.53;;;33.34
67509;BMP280;54354;44.724;11.284;2022-08-07T15:50:26;101425.88;;;33.38
67509;BMP280;54354;44.724;11.284;2022-08-07T15:52:57;101426.22;;;33.42
67509;BMP280;54354;44.724;11.284;2022-08-07T15:55:24;101437.91;;;33.50